sensor_id;sensor_type;location;lat;lon;timestamp;P1;durP1;ratioP1;P2;durP2;ratioP2
18793;SDS011;29610;49.022;12.114;2023-11-22T00:00:04;7.80;;;3.67;;
18793;SDS011;29610;49.022;12.114;2023-11-22T00:02:35;8.80;;;4.00;;
18793;SDS011;29610;49.022;12.114;2023-11-22T00:05:04;8.33;;;3.70;;
18793;SDS011;29610;49.022;12.114;2023-11-22T00:07:33;7.50;;;3.57;;
18793;SDS011;29610;49.022;12.114;2023-11-22T00:10:03;8.37;;;3.90;;
18793;SDS011;29610;49.022;12.114;2023-11-22T00:12:33;7.50;;;3.10;;
18793;SDS011;29610;49.022;12.114;2023-11-22T00:15:03;7.77;;;3.60;;
18793;SDS011;29610;49.022;12.114;2023-11-22T00:17:33;9.57;;;4.07;;
18793;SDS011;29610;49.022;12.114;2023-11-22T00:20:04;9.17;;;4.07;;
18793;SDS011;29610;49.022;12.114;2023-11-22T00:22:34;7.03;;;3.47;;
18793;SDS011;29610;49.022;12.114;2023-11-22T00:25:03;6.30;;;3.20;;
18793;SDS011;29610;49.022;12.114;2023-11-22T00:27:32;7.47;;;3.50;;
18793;SDS011;29610;49.022;12.114;2023-11-22T00:30:01;6.53;;;2.93;;
18793;SDS011;29610;49.022;12.114;2023-11-22T00:32:30;7.33;;;3.50;;
18793;SDS011;29610;49.022;12.114;2023-11-22T00:35:00;7.73;;;3.90;;
18793;SDS011;29610;49.022;12.114;2023-11-22T00:37:29;8.47;;;3.70;;
18793;SDS011;29610;49.022;12.114;2023-11-22T00:39:57;8.27;;;4.00;;
18793;SDS011;29610;49.022;12.114;2023-11-22T00:42:27;7.80;;;3.20;;
18793;SDS011;29610;49.022;12.114;2023-11-22T00:44:55;9.00;;;4.10;;
18793;SDS011;29610;49.022;12.114;2023-11-22T00:47:23;8.20;;;3.73;;
18793;SDS011;29610;49.022;12.114;2023-11-22T00:49:51;8.57;;;3.80;;
18793;SDS011;29610;49.022;12.114;2023-11-22T00:52:21;8.37;;;3.97;;
18793;SDS011;29610;49.022;12.114;2023-11-22T00:54:49;8.60;;;4.17;;
18793;SDS011;29610;49.022;12.114;2023-11-22T00:57:18;7.47;;;3.27;;
18793;SDS011;29610;49.022;12.114;2023-11-22T00:59:46;8.33;;;3.70;;
18793;SDS011;29610;49.022;12.114;2023-11-22T01:02:16;7.70;;;3.53;;
18793;SDS011;29610;49.022;12.114;2023-11-22T01:04:44;7.47;;;3.20;;
18793;SDS011;29610;49.022;12.114;2023-11-22T01:07:12;9.20;;;3.30;;
18793;SDS011;29610;49.022;12.114;2023-11-22T01:09:42;9.13;;;3.60;;
18793;SDS011;29610;49.022;12.114;2023-11-22T01:12:10;7.30;;;2.97;;
18793;SDS011;29610;49.022;12.114;2023-11-22T01:14:39;8.80;;;3.50;;
18793;SDS011;29610;49.022;12.114;2023-11-22T01:17:07;7.30;;;3.70;;
18793;SDS011;29610;49.022;12.114;2023-11-22T01:19:36;8.23;;;3.60;;
18793;SDS011;29610;49.022;12.114;2023-11-22T01:22:05;11.77;;;3.90;;
18793;SDS011;29610;49.022;12.114;2023-11-22T01:24:33;9.10;;;3.83;;
18793;SDS011;29610;49.022;12.114;2023-11-22T01:27:05;11.17;;;3.97;;
18793;SDS011;29610;49.022;12.114;2023-11-22T01:29:33;12.70;;;4.20;;
18793;SDS011;29610;49.022;12.114;2023-11-22T01:32:01;9.63;;;3.53;;
18793;SDS011;29610;49.022;12.114;2023-11-22T01:34:30;8.60;;;3.37;;
18793;SDS011;29610;49.022;12.114;2023-11-22T01:36:59;10.37;;;4.17;;
18793;SDS011;29610;49.022;12.114;2023-11-22T01:39:28;8.53;;;3.73;;
18793;SDS011;29610;49.022;12.114;2023-11-22T01:41:57;6.30;;;2.80;;
18793;SDS011;29610;49.022;12.114;2023-11-22T01:44:27;6.93;;;3.10;;
18793;SDS011;29610;49.022;12.114;2023-11-22T01:46:55;6.97;;;3.57;;
18793;SDS011;29610;49.022;12.114;2023-11-22T01:49:23;5.83;;;2.67;;
18793;SDS011;29610;49.022;12.114;2023-11-22T01:51:53;7.57;;;3.47;;
18793;SDS011;29610;49.022;12.114;2023-11-22T01:54:22;7.20;;;3.07;;
18793;SDS011;29610;49.022;12.114;2023-11-22T01:56:53;9.97;;;3.63;;
18793;SDS011;29610;49.022;12.114;2023-11-22T01:59:22;6.97;;;2.87;;
18793;SDS011;29610;49.022;12.114;2023-11-22T02:01:54;7.50;;;3.17;;
18793;SDS011;29610;49.022;12.114;2023-11-22T02:04:22;7.27;;;2.77;;
18793;SDS011;29610;49.022;12.114;2023-11-22T02:06:51;5.83;;;2.63;;
18793;SDS011;29610;49.022;12.114;2023-11-22T02:09:19;8.80;;;3.10;;
18793;SDS011;29610;49.022;12.114;2023-11-22T02:11:48;9.40;;;2.47;;
18793;SDS011;29610;49.022;12.114;2023-11-22T02:14:16;6.57;;;3.50;;
18793;SDS011;29610;49.022;12.114;2023-11-22T02:16:46;5.50;;;2.20;;
18793;SDS011;29610;49.022;12.114;2023-11-22T02:19:17;6.53;;;2.80;;
18793;SDS011;29610;49.022;12.114;2023-11-22T02:21:46;5.80;;;2.30;;
18793;SDS011;29610;49.022;12.114;2023-11-22T02:24:16;6.53;;;2.50;;
18793;SDS011;29610;49.022;12.114;2023-11-22T02:26:44;6.90;;;2.90;;
18793;SDS011;29610;49.022;12.114;2023-11-22T02:29:13;5.27;;;1.90;;
18793;SDS011;29610;49.022;12.114;2023-11-22T02:31:42;6.90;;;2.70;;
18793;SDS011;29610;49.022;12.114;2023-11-22T02:34:10;7.90;;;2.43;;
18793;SDS011;29610;49.022;12.114;2023-11-22T02:36:39;6.40;;;2.43;;
18793;SDS011;29610;49.022;12.114;2023-11-22T02:39:25;5.50;;;1.93;;
18793;SDS011;29610;49.022;12.114;2023-11-22T02:42:04;5.90;;;2.50;;
18793;SDS011;29610;49.022;12.114;2023-11-22T02:44:33;6.30;;;2.37;;
18793;SDS011;29610;49.022;12.114;2023-11-22T02:47:01;5.70;;;1.73;;
18793;SDS011;29610;49.022;12.114;2023-11-22T02:49:30;5.80;;;2.17;;
18793;SDS011;29610;49.022;12.114;2023-11-22T02:51:58;5.73;;;2.30;;
18793;SDS011;29610;49.022;12.114;2023-11-22T02:54:28;9.13;;;1.93;;
18793;SDS011;29610;49.022;12.114;2023-11-22T02:56:57;5.90;;;2.67;;
18793;SDS011;29610;49.022;12.114;2023-11-22T02:59:26;7.23;;;2.60;;
18793;SDS011;29610;49.022;12.114;2023-11-22T03:01:55;6.17;;;2.90;;
18793;SDS011;29610;49.022;12.114;2023-11-22T03:04:23;5.37;;;2.23;;
18793;SDS011;29610;49.022;12.114;2023-11-22T03:06:51;5.27;;;2.07;;
18793;SDS011;29610;49.022;12.114;2023-11-22T03:09:19;5.80;;;2.23;;
18793;SDS011;29610;49.022;12.114;2023-11-22T03:11:50;8.10;;;2.60;;
18793;SDS011;29610;49.022;12.114;2023-11-22T03:14:18;6.30;;;2.67;;
18793;SDS011;29610;49.022;12.114;2023-11-22T03:16:48;5.10;;;2.13;;
18793;SDS011;29610;49.022;12.114;2023-11-22T03:19:16;6.07;;;2.43;;
18793;SDS011;29610;49.022;12.114;2023-11-22T03:21:45;5.43;;;2.27;;
18793;SDS011;29610;49.022;12.114;2023-11-22T03:24:14;8.10;;;2.47;;
18793;SDS011;29610;49.022;12.114;2023-11-22T03:26:42;8.40;;;2.67;;
18793;SDS011;29610;49.022;12.114;2023-11-22T03:29:15;7.73;;;3.10;;
18793;SDS011;29610;49.022;12.114;2023-11-22T03:31:44;7.93;;;3.70;;
18793;SDS011;29610;49.022;12.114;2023-11-22T03:34:13;7.93;;;3.37;;
18793;SDS011;29610;49.022;12.114;2023-11-22T03:36:42;7.50;;;3.20;;
18793;SDS011;29610;49.022;12.114;2023-11-22T03:39:11;6.47;;;3.20;;
18793;SDS011;29610;49.022;12.114;2023-11-22T03:41:41;7.70;;;2.93;;
18793;SDS011;29610;49.022;12.114;2023-11-22T03:44:10;6.10;;;2.83;;
18793;SDS011;29610;49.022;12.114;2023-11-22T03:46:40;8.13;;;3.23;;
18793;SDS011;29610;49.022;12.114;2023-11-22T03:49:08;7.20;;;3.27;;
18793;SDS011;29610;49.022;12.114;2023-11-22T03:51:37;7.80;;;3.37;;
18793;SDS011;29610;49.022;12.114;2023-11-22T03:54:06;7.00;;;3.47;;
18793;SDS011;29610;49.022;12.114;2023-11-22T03:56:36;8.10;;;3.70;;
18793;SDS011;29610;49.022;12.114;2023-11-22T03:59:04;7.30;;;3.23;;
18793;SDS011;29610;49.022;12.114;2023-11-22T04:01:33;7.10;;;3.30;;
18793;SDS011;29610;49.022;12.114;2023-11-22T04:04:02;6.83;;;3.27;;
18793;SDS011;29610;49.022;12.114;2023-11-22T04:06:31;6.70;;;3.40;;
18793;SDS011;29610;49.022;12.114;2023-11-22T04:09:00;8.00;;;3.33;;
18793;SDS011;29610;49.022;12.114;2023-11-22T04:11:28;8.77;;;3.10;;
18793;SDS011;29610;49.022;12.114;2023-11-22T04:13:57;6.90;;;3.30;;
18793;SDS011;29610;49.022;12.114;2023-11-22T04:16:26;7.33;;;3.50;;
18793;SDS011;29610;49.022;12.114;2023-11-22T04:18:54;6.97;;;3.30;;
18793;SDS011;29610;49.022;12.114;2023-11-22T04:21:25;7.87;;;3.20;;
18793;SDS011;29610;49.022;12.114;2023-11-22T04:23:54;7.93;;;3.43;;
18793;SDS011;29610;49.022;12.114;2023-11-22T04:26:22;8.30;;;3.70;;
18793;SDS011;29610;49.022;12.114;2023-11-22T04:28:51;14.27;;;3.10;;
18793;SDS011;29610;49.022;12.114;2023-11-22T04:31:19;7.20;;;3.87;;
18793;SDS011;29610;49.022;12.114;2023-11-22T04:33:47;7.33;;;3.00;;
18793;SDS011;29610;49.022;12.114;2023-11-22T04:36:16;6.17;;;3.00;;
18793;SDS011;29610;49.022;12.114;2023-11-22T04:38:49;6.60;;;3.10;;
18793;SDS011;29610;49.022;12.114;2023-11-22T04:41:17;7.40;;;3.57;;
18793;SDS011;29610;49.022;12.114;2023-11-22T04:43:46;7.53;;;3.43;;
18793;SDS011;29610;49.022;12.114;2023-11-22T04:46:15;7.20;;;3.20;;
18793;SDS011;29610;49.022;12.114;2023-11-22T04:48:43;7.23;;;3.70;;
18793;SDS011;29610;49.022;12.114;2023-11-22T04:51:11;6.63;;;2.83;;
18793;SDS011;29610;49.022;12.114;2023-11-22T04:53:39;7.73;;;3.47;;
18793;SDS011;29610;49.022;12.114;2023-11-22T04:56:11;7.53;;;3.10;;
18793;SDS011;29610;49.022;12.114;2023-11-22T04:58:40;6.73;;;3.10;;
18793;SDS011;29610;49.022;12.114;2023-11-22T05:01:08;8.50;;;3.20;;
18793;SDS011;29610;49.022;12.114;2023-11-22T05:03:37;6.30;;;2.53;;
18793;SDS011;29610;49.022;12.114;2023-11-22T05:06:05;5.73;;;2.43;;
18793;SDS011;29610;49.022;12.114;2023-11-22T05:08:33;6.33;;;3.07;;
18793;SDS011;29610;49.022;12.114;2023-11-22T05:11:01;7.00;;;2.80;;
18793;SDS011;29610;49.022;12.114;2023-11-22T05:13:32;5.80;;;2.50;;
18793;SDS011;29610;49.022;12.114;2023-11-22T05:16:00;6.40;;;2.60;;
18793;SDS011;29610;49.022;12.114;2023-11-22T05:18:29;6.10;;;2.73;;
18793;SDS011;29610;49.022;12.114;2023-11-22T05:20:57;5.77;;;3.00;;
18793;SDS011;29610;49.022;12.114;2023-11-22T05:23:25;6.90;;;3.63;;
18793;SDS011;29610;49.022;12.114;2023-11-22T05:25:54;7.07;;;3.30;;
18793;SDS011;29610;49.022;12.114;2023-11-22T05:28:22;6.13;;;2.90;;
18793;SDS011;29610;49.022;12.114;2023-11-22T05:30:51;5.90;;;3.10;;
18793;SDS011;29610;49.022;12.114;2023-11-22T05:33:20;6.53;;;3.20;;
18793;SDS011;29610;49.022;12.114;2023-11-22T05:35:48;7.70;;;3.57;;
18793;SDS011;29610;49.022;12.114;2023-11-22T05:38:16;6.20;;;3.30;;
18793;SDS011;29610;49.022;12.114;2023-11-22T05:40:45;11.20;;;3.50;;
18793;SDS011;29610;49.022;12.114;2023-11-22T05:43:13;6.90;;;3.13;;
18793;SDS011;29610;49.022;12.114;2023-11-22T05:45:41;7.50;;;3.40;;
18793;SDS011;29610;49.022;12.114;2023-11-22T05:48:11;6.73;;;2.57;;
18793;SDS011;29610;49.022;12.114;2023-11-22T05:50:41;6.47;;;2.80;;
18793;SDS011;29610;49.022;12.114;2023-11-22T05:53:09;7.30;;;3.33;;
18793;SDS011;29610;49.022;12.114;2023-11-22T05:55:37;6.73;;;2.80;;
18793;SDS011;29610;49.022;12.114;2023-11-22T05:58:06;6.40;;;2.90;;
18793;SDS011;29610;49.022;12.114;2023-11-22T06:00:34;6.67;;;3.53;;
18793;SDS011;29610;49.022;12.114;2023-11-22T06:03:04;6.00;;;2.27;;
18793;SDS011;29610;49.022;12.114;2023-11-22T06:05:34;6.17;;;3.13;;
18793;SDS011;29610;49.022;12.114;2023-11-22T06:08:02;6.50;;;2.70;;
18793;SDS011;29610;49.022;12.114;2023-11-22T06:10:31;6.20;;;2.57;;
18793;SDS011;29610;49.022;12.114;2023-11-22T06:13:00;7.00;;;2.90;;
18793;SDS011;29610;49.022;12.114;2023-11-22T06:15:28;6.83;;;2.63;;
18793;SDS011;29610;49.022;12.114;2023-11-22T06:17:58;6.10;;;3.03;;
18793;SDS011;29610;49.022;12.114;2023-11-22T06:20:27;5.60;;;2.87;;
18793;SDS011;29610;49.022;12.114;2023-11-22T06:22:56;6.43;;;2.90;;
18793;SDS011;29610;49.022;12.114;2023-11-22T06:25:27;7.87;;;3.03;;
18793;SDS011;29610;49.022;12.114;2023-11-22T06:27:55;6.50;;;2.70;;
18793;SDS011;29610;49.022;12.114;2023-11-22T06:30:26;5.90;;;2.97;;
18793;SDS011;29610;49.022;12.114;2023-11-22T06:32:56;6.37;;;2.70;;
18793;SDS011;29610;49.022;12.114;2023-11-22T06:35:25;7.70;;;3.30;;
18793;SDS011;29610;49.022;12.114;2023-11-22T06:37:53;5.97;;;2.87;;
18793;SDS011;29610;49.022;12.114;2023-11-22T06:40:23;8.03;;;3.23;;
18793;SDS011;29610;49.022;12.114;2023-11-22T06:42:51;6.10;;;2.70;;
18793;SDS011;29610;49.022;12.114;2023-11-22T06:45:19;6.17;;;2.93;;
18793;SDS011;29610;49.022;12.114;2023-11-22T06:47:47;6.60;;;2.87;;
18793;SDS011;29610;49.022;12.114;2023-11-22T06:50:17;5.97;;;2.90;;
18793;SDS011;29610;49.022;12.114;2023-11-22T06:52:45;6.57;;;3.00;;
18793;SDS011;29610;49.022;12.114;2023-11-22T06:55:15;7.40;;;3.40;;
18793;SDS011;29610;49.022;12.114;2023-11-22T06:57:45;6.67;;;2.80;;
18793;SDS011;29610;49.022;12.114;2023-11-22T07:00:13;5.50;;;2.33;;
18793;SDS011;29610;49.022;12.114;2023-11-22T07:02:43;7.03;;;3.27;;
18793;SDS011;29610;49.022;12.114;2023-11-22T07:05:11;8.30;;;4.10;;
18793;SDS011;29610;49.022;12.114;2023-11-22T07:07:40;6.63;;;2.90;;
18793;SDS011;29610;49.022;12.114;2023-11-22T07:10:09;6.57;;;3.07;;
18793;SDS011;29610;49.022;12.114;2023-11-22T07:12:40;5.47;;;2.63;;
18793;SDS011;29610;49.022;12.114;2023-11-22T07:15:11;8.50;;;3.87;;
18793;SDS011;29610;49.022;12.114;2023-11-22T07:17:40;6.50;;;2.90;;
18793;SDS011;29610;49.022;12.114;2023-11-22T07:20:08;6.13;;;3.30;;
18793;SDS011;29610;49.022;12.114;2023-11-22T07:22:42;5.73;;;2.60;;
18793;SDS011;29610;49.022;12.114;2023-11-22T07:25:11;6.50;;;3.00;;
18793;SDS011;29610;49.022;12.114;2023-11-22T07:27:44;6.33;;;3.00;;
18793;SDS011;29610;49.022;12.114;2023-11-22T07:30:14;6.47;;;2.77;;
18793;SDS011;29610;49.022;12.114;2023-11-22T07:32:45;7.03;;;3.63;;
18793;SDS011;29610;49.022;12.114;2023-11-22T07:35:15;6.43;;;2.90;;
18793;SDS011;29610;49.022;12.114;2023-11-22T07:37:43;7.03;;;3.00;;
18793;SDS011;29610;49.022;12.114;2023-11-22T07:40:12;7.90;;;3.60;;
18793;SDS011;29610;49.022;12.114;2023-11-22T07:42:40;7.00;;;3.40;;
18793;SDS011;29610;49.022;12.114;2023-11-22T07:45:10;7.23;;;3.60;;
18793;SDS011;29610;49.022;12.114;2023-11-22T07:47:41;6.80;;;3.53;;
18793;SDS011;29610;49.022;12.114;2023-11-22T07:50:10;8.30;;;3.60;;
18793;SDS011;29610;49.022;12.114;2023-11-22T07:52:39;9.77;;;4.40;;
18793;SDS011;29610;49.022;12.114;2023-11-22T07:55:08;8.00;;;3.40;;
18793;SDS011;29610;49.022;12.114;2023-11-22T07:57:37;8.63;;;3.50;;
18793;SDS011;29610;49.022;12.114;2023-11-22T08:00:06;11.87;;;4.27;;
18793;SDS011;29610;49.022;12.114;2023-11-22T08:02:37;7.03;;;3.27;;
18793;SDS011;29610;49.022;12.114;2023-11-22T08:05:07;10.20;;;4.03;;
18793;SDS011;29610;49.022;12.114;2023-11-22T08:07:36;9.13;;;4.00;;
18793;SDS011;29610;49.022;12.114;2023-11-22T08:10:08;8.77;;;3.73;;
18793;SDS011;29610;49.022;12.114;2023-11-22T08:12:45;8.37;;;3.70;;
18793;SDS011;29610;49.022;12.114;2023-11-22T08:15:16;9.17;;;3.97;;
18793;SDS011;29610;49.022;12.114;2023-11-22T08:17:46;9.03;;;4.43;;
18793;SDS011;29610;49.022;12.114;2023-11-22T08:20:16;8.10;;;4.20;;
18793;SDS011;29610;49.022;12.114;2023-11-22T08:22:45;9.17;;;4.30;;
18793;SDS011;29610;49.022;12.114;2023-11-22T08:25:16;8.57;;;4.57;;
18793;SDS011;29610;49.022;12.114;2023-11-22T08:27:45;7.90;;;3.97;;
18793;SDS011;29610;49.022;12.114;2023-11-22T08:30:13;8.97;;;4.80;;
18793;SDS011;29610;49.022;12.114;2023-11-22T08:32:43;11.27;;;4.73;;
18793;SDS011;29610;49.022;12.114;2023-11-22T08:35:19;11.87;;;4.80;;
18793;SDS011;29610;49.022;12.114;2023-11-22T08:37:48;9.50;;;4.73;;
18793;SDS011;29610;49.022;12.114;2023-11-22T08:40:17;10.10;;;4.53;;
18793;SDS011;29610;49.022;12.114;2023-11-22T08:42:47;8.97;;;4.63;;
18793;SDS011;29610;49.022;12.114;2023-11-22T08:45:15;11.77;;;5.00;;
18793;SDS011;29610;49.022;12.114;2023-11-22T08:47:43;11.20;;;5.30;;
18793;SDS011;29610;49.022;12.114;2023-11-22T08:50:12;9.30;;;4.50;;
18793;SDS011;29610;49.022;12.114;2023-11-22T08:52:43;12.13;;;4.90;;
18793;SDS011;29610;49.022;12.114;2023-11-22T08:55:13;10.30;;;5.00;;
18793;SDS011;29610;49.022;12.114;2023-11-22T08:57:41;10.90;;;4.93;;
18793;SDS011;29610;49.022;12.114;2023-11-22T09:00:10;8.77;;;4.70;;
18793;SDS011;29610;49.022;12.114;2023-11-22T09:02:40;13.50;;;5.50;;
18793;SDS011;29610;49.022;12.114;2023-11-22T09:05:09;10.17;;;5.10;;
18793;SDS011;29610;49.022;12.114;2023-11-22T09:07:39;11.13;;;4.80;;
18793;SDS011;29610;49.022;12.114;2023-11-22T09:10:09;10.50;;;5.17;;
18793;SDS011;29610;49.022;12.114;2023-11-22T09:12:42;11.37;;;5.80;;
18793;SDS011;29610;49.022;12.114;2023-11-22T09:15:11;9.17;;;4.67;;
18793;SDS011;29610;49.022;12.114;2023-11-22T09:17:43;10.20;;;5.47;;
18793;SDS011;29610;49.022;12.114;2023-11-22T09:20:13;10.77;;;5.00;;
18793;SDS011;29610;49.022;12.114;2023-11-22T09:22:43;11.50;;;5.40;;
18793;SDS011;29610;49.022;12.114;2023-11-22T09:25:16;10.13;;;5.33;;
18793;SDS011;29610;49.022;12.114;2023-11-22T09:27:46;10.67;;;5.20;;
18793;SDS011;29610;49.022;12.114;2023-11-22T09:30:19;10.83;;;4.80;;
18793;SDS011;29610;49.022;12.114;2023-11-22T09:33:01;9.97;;;4.60;;
18793;SDS011;29610;49.022;12.114;2023-11-22T09:35:32;13.53;;;5.87;;
18793;SDS011;29610;49.022;12.114;2023-11-22T09:38:02;12.23;;;5.10;;
18793;SDS011;29610;49.022;12.114;2023-11-22T09:40:34;13.43;;;6.60;;
18793;SDS011;29610;49.022;12.114;2023-11-22T09:43:03;12.30;;;6.93;;
18793;SDS011;29610;49.022;12.114;2023-11-22T09:45:32;12.57;;;7.33;;
18793;SDS011;29610;49.022;12.114;2023-11-22T09:48:02;10.97;;;6.00;;
18793;SDS011;29610;49.022;12.114;2023-11-22T09:50:38;13.17;;;6.20;;
18793;SDS011;29610;49.022;12.114;2023-11-22T09:53:16;12.53;;;7.30;;
18793;SDS011;29610;49.022;12.114;2023-11-22T09:55:54;16.00;;;7.67;;
18793;SDS011;29610;49.022;12.114;2023-11-22T09:58:23;11.13;;;6.43;;
18793;SDS011;29610;49.022;12.114;2023-11-22T10:00:52;10.57;;;6.10;;
18793;SDS011;29610;49.022;12.114;2023-11-22T10:03:21;8.67;;;4.70;;
18793;SDS011;29610;49.022;12.114;2023-11-22T10:05:51;11.77;;;7.73;;
18793;SDS011;29610;49.022;12.114;2023-11-22T10:08:20;8.37;;;4.53;;
18793;SDS011;29610;49.022;12.114;2023-11-22T10:10:49;10.67;;;5.93;;
18793;SDS011;29610;49.022;12.114;2023-11-22T10:13:21;9.90;;;5.60;;
18793;SDS011;29610;49.022;12.114;2023-11-22T10:15:50;8.63;;;4.53;;
18793;SDS011;29610;49.022;12.114;2023-11-22T10:18:19;10.43;;;5.40;;
18793;SDS011;29610;49.022;12.114;2023-11-22T10:20:49;7.80;;;4.90;;
18793;SDS011;29610;49.022;12.114;2023-11-22T10:23:18;8.60;;;4.73;;
18793;SDS011;29610;49.022;12.114;2023-11-22T10:25:51;8.37;;;4.27;;
18793;SDS011;29610;49.022;12.114;2023-11-22T10:28:22;8.50;;;5.13;;
18793;SDS011;29610;49.022;12.114;2023-11-22T10:30:54;8.73;;;4.70;;
18793;SDS011;29610;49.022;12.114;2023-11-22T10:33:22;8.00;;;4.40;;
18793;SDS011;29610;49.022;12.114;2023-11-22T10:35:54;10.30;;;5.00;;
18793;SDS011;29610;49.022;12.114;2023-11-22T10:38:23;9.17;;;6.07;;
18793;SDS011;29610;49.022;12.114;2023-11-22T10:40:52;10.47;;;5.83;;
18793;SDS011;29610;49.022;12.114;2023-11-22T10:43:25;7.93;;;4.53;;
18793;SDS011;29610;49.022;12.114;2023-11-22T10:45:59;7.83;;;4.37;;
18793;SDS011;29610;49.022;12.114;2023-11-22T10:48:28;9.53;;;5.10;;
18793;SDS011;29610;49.022;12.114;2023-11-22T10:50:57;11.27;;;4.63;;
18793;SDS011;29610;49.022;12.114;2023-11-22T10:53:32;12.23;;;4.97;;
18793;SDS011;29610;49.022;12.114;2023-11-22T10:56:03;9.20;;;5.20;;
18793;SDS011;29610;49.022;12.114;2023-11-22T10:58:42;9.87;;;5.00;;
18793;SDS011;29610;49.022;12.114;2023-11-22T11:01:15;8.47;;;4.47;;
18793;SDS011;29610;49.022;12.114;2023-11-22T11:03:46;9.57;;;4.93;;
18793;SDS011;29610;49.022;12.114;2023-11-22T11:06:24;9.87;;;5.67;;
18793;SDS011;29610;49.022;12.114;2023-11-22T11:09:00;10.27;;;5.67;;
18793;SDS011;29610;49.022;12.114;2023-11-22T11:11:33;7.63;;;4.63;;
18793;SDS011;29610;49.022;12.114;2023-11-22T11:14:07;10.17;;;5.30;;
18793;SDS011;29610;49.022;12.114;2023-11-22T11:16:38;7.40;;;4.27;;
18793;SDS011;29610;49.022;12.114;2023-11-22T11:19:14;19.10;;;10.30;;
18793;SDS011;29610;49.022;12.114;2023-11-22T11:21:44;10.13;;;5.63;;
18793;SDS011;29610;49.022;12.114;2023-11-22T11:24:15;10.50;;;5.23;;
18793;SDS011;29610;49.022;12.114;2023-11-22T11:26:46;7.20;;;4.43;;
18793;SDS011;29610;49.022;12.114;2023-11-22T11:29:33;7.30;;;3.83;;
18793;SDS011;29610;49.022;12.114;2023-11-22T11:32:09;9.83;;;5.00;;
18793;SDS011;29610;49.022;12.114;2023-11-22T11:34:46;9.27;;;4.87;;
18793;SDS011;29610;49.022;12.114;2023-11-22T11:37:17;12.40;;;5.47;;
18793;SDS011;29610;49.022;12.114;2023-11-22T11:39:47;10.47;;;5.23;;
18793;SDS011;29610;49.022;12.114;2023-11-22T11:42:15;6.93;;;3.57;;
18793;SDS011;29610;49.022;12.114;2023-11-22T11:45:00;8.30;;;4.93;;
18793;SDS011;29610;49.022;12.114;2023-11-22T11:47:35;10.27;;;4.23;;
18793;SDS011;29610;49.022;12.114;2023-11-22T11:50:04;8.53;;;4.30;;
18793;SDS011;29610;49.022;12.114;2023-11-22T11:52:33;15.30;;;5.67;;
18793;SDS011;29610;49.022;12.114;2023-11-22T11:55:02;9.70;;;5.10;;
18793;SDS011;29610;49.022;12.114;2023-11-22T11:57:32;7.80;;;4.07;;
18793;SDS011;29610;49.022;12.114;2023-11-22T12:00:01;8.27;;;4.50;;
18793;SDS011;29610;49.022;12.114;2023-11-22T12:02:36;8.83;;;4.30;;
18793;SDS011;29610;49.022;12.114;2023-11-22T12:05:05;10.27;;;4.87;;
18793;SDS011;29610;49.022;12.114;2023-11-22T12:07:36;8.20;;;4.30;;
18793;SDS011;29610;49.022;12.114;2023-11-22T12:10:05;8.63;;;4.80;;
18793;SDS011;29610;49.022;12.114;2023-11-22T12:12:34;11.67;;;5.50;;
18793;SDS011;29610;49.022;12.114;2023-11-22T12:15:05;11.60;;;5.70;;
18793;SDS011;29610;49.022;12.114;2023-11-22T12:17:36;10.20;;;6.03;;
18793;SDS011;29610;49.022;12.114;2023-11-22T12:20:08;17.93;;;5.20;;
18793;SDS011;29610;49.022;12.114;2023-11-22T12:22:41;9.40;;;4.60;;
18793;SDS011;29610;49.022;12.114;2023-11-22T12:25:10;10.23;;;5.47;;
18793;SDS011;29610;49.022;12.114;2023-11-22T12:27:39;11.33;;;5.43;;
18793;SDS011;29610;49.022;12.114;2023-11-22T12:30:26;11.67;;;5.90;;
18793;SDS011;29610;49.022;12.114;2023-11-22T12:32:57;9.20;;;6.07;;
18793;SDS011;29610;49.022;12.114;2023-11-22T12:35:29;11.23;;;6.00;;
18793;SDS011;29610;49.022;12.114;2023-11-22T12:38:00;12.87;;;6.10;;
18793;SDS011;29610;49.022;12.114;2023-11-22T12:40:29;10.97;;;6.17;;
18793;SDS011;29610;49.022;12.114;2023-11-22T12:43:00;10.03;;;5.10;;
18793;SDS011;29610;49.022;12.114;2023-11-22T12:45:31;12.80;;;5.90;;
18793;SDS011;29610;49.022;12.114;2023-11-22T12:48:19;11.17;;;6.00;;
18793;SDS011;29610;49.022;12.114;2023-11-22T12:50:50;10.63;;;5.63;;
18793;SDS011;29610;49.022;12.114;2023-11-22T12:53:20;11.07;;;5.53;;
18793;SDS011;29610;49.022;12.114;2023-11-22T12:55:49;10.87;;;5.57;;
18793;SDS011;29610;49.022;12.114;2023-11-22T12:58:21;12.13;;;6.43;;
18793;SDS011;29610;49.022;12.114;2023-11-22T13:00:52;10.30;;;5.10;;
18793;SDS011;29610;49.022;12.114;2023-11-22T13:03:27;10.90;;;5.23;;
18793;SDS011;29610;49.022;12.114;2023-11-22T13:05:55;12.40;;;5.87;;
18793;SDS011;29610;49.022;12.114;2023-11-22T13:08:24;9.93;;;5.60;;
18793;SDS011;29610;49.022;12.114;2023-11-22T13:10:56;12.00;;;6.10;;
18793;SDS011;29610;49.022;12.114;2023-11-22T13:13:26;14.00;;;6.60;;
18793;SDS011;29610;49.022;12.114;2023-11-22T13:15:57;13.53;;;6.40;;
18793;SDS011;29610;49.022;12.114;2023-11-22T13:18:26;10.90;;;6.00;;
18793;SDS011;29610;49.022;12.114;2023-11-22T13:20:54;12.60;;;7.17;;
18793;SDS011;29610;49.022;12.114;2023-11-22T13:23:23;12.50;;;6.73;;
18793;SDS011;29610;49.022;12.114;2023-11-22T13:25:51;13.40;;;7.10;;
18793;SDS011;29610;49.022;12.114;2023-11-22T13:28:19;10.57;;;5.90;;
18793;SDS011;29610;49.022;12.114;2023-11-22T13:30:47;12.70;;;6.80;;
18793;SDS011;29610;49.022;12.114;2023-11-22T13:33:18;12.60;;;6.60;;
18793;SDS011;29610;49.022;12.114;2023-11-22T13:35:46;16.90;;;8.30;;
18793;SDS011;29610;49.022;12.114;2023-11-22T13:38:15;14.63;;;6.80;;
18793;SDS011;29610;49.022;12.114;2023-11-22T13:40:43;16.77;;;7.90;;
18793;SDS011;29610;49.022;12.114;2023-11-22T13:43:12;13.00;;;7.90;;
18793;SDS011;29610;49.022;12.114;2023-11-22T13:45:41;18.07;;;8.17;;
18793;SDS011;29610;49.022;12.114;2023-11-22T13:48:12;15.73;;;7.60;;
18793;SDS011;29610;49.022;12.114;2023-11-22T13:50:41;15.63;;;7.60;;
18793;SDS011;29610;49.022;12.114;2023-11-22T13:53:11;12.10;;;6.53;;
18793;SDS011;29610;49.022;12.114;2023-11-22T13:55:39;13.83;;;7.63;;
18793;SDS011;29610;49.022;12.114;2023-11-22T13:58:07;14.00;;;7.60;;
18793;SDS011;29610;49.022;12.114;2023-11-22T14:00:35;13.47;;;6.97;;
18793;SDS011;29610;49.022;12.114;2023-11-22T14:03:05;16.50;;;8.90;;
18793;SDS011;29610;49.022;12.114;2023-11-22T14:05:37;11.80;;;6.00;;
18793;SDS011;29610;49.022;12.114;2023-11-22T14:08:07;10.03;;;5.30;;
18793;SDS011;29610;49.022;12.114;2023-11-22T14:10:36;13.90;;;6.60;;
18793;SDS011;29610;49.022;12.114;2023-11-22T14:13:04;17.80;;;5.93;;
18793;SDS011;29610;49.022;12.114;2023-11-22T14:15:34;12.17;;;6.33;;
18793;SDS011;29610;49.022;12.114;2023-11-22T14:18:04;15.10;;;7.97;;
18793;SDS011;29610;49.022;12.114;2023-11-22T14:20:32;11.80;;;6.53;;
18793;SDS011;29610;49.022;12.114;2023-11-22T14:23:01;13.03;;;6.93;;
18793;SDS011;29610;49.022;12.114;2023-11-22T14:25:31;21.23;;;7.80;;
18793;SDS011;29610;49.022;12.114;2023-11-22T14:27:59;14.17;;;6.60;;
18793;SDS011;29610;49.022;12.114;2023-11-22T14:30:28;9.27;;;5.83;;
18793;SDS011;29610;49.022;12.114;2023-11-22T14:33:01;12.10;;;6.20;;
18793;SDS011;29610;49.022;12.114;2023-11-22T14:35:33;10.20;;;5.70;;
18793;SDS011;29610;49.022;12.114;2023-11-22T14:38:03;12.00;;;5.87;;
18793;SDS011;29610;49.022;12.114;2023-11-22T14:40:34;11.60;;;6.17;;
18793;SDS011;29610;49.022;12.114;2023-11-22T14:43:04;12.37;;;6.47;;
18793;SDS011;29610;49.022;12.114;2023-11-22T14:45:33;11.57;;;6.00;;